sensor_id;sensor_type;location;lat;lon;timestamp;pressure;altitude;pressure_sealevel;temperature;humidity
75794;BME280;64418;47.536;19.074;2023-12-20T00:00:13;100557.34;;;-1.94;100.00
75794;BME280;64418;47.536;19.074;2023-12-20T00:02:40;100549.50;;;-1.96;100.00
75794;BME280;64418;47.536;19.074;2023-12-20T00:05:08;100548.78;;;-1.98;100.00
75794;BME280;64418;47.536;19.074;2023-12-20T00:07:34;100537.31;;;-1.98;100.00
75794;BME280;64418;47.536;19.074;2023-12-20T00:09:59;100548.75;;;-1.75;100.00
75794;BME280;64418;47.536;19.074;2023-12-20T00:12:25;100547.94;;;-1.87;100.00
75794;BME280;64418;47.536;19.074;2023-12-20T00:14:51;100540.81;;;-1.86;100.00
75794;BME280;64418;47.536;19.074;2023-12-20T00:17:17;100535.47;;;-1.75;100.00
75794;BME280;64418;47.536;19.074;2023-12-20T00:19:43;100529.69;;;-1.80;100.00
75794;BME280;64418;47.536;19.074;2023-12-20T00:22:11;100528.72;;;-1.79;100.00
75794;BME280;64418;47.536;19.074;2023-12-20T00:24:37;100529.44;;;-1.77;100.00
75794;BME280;64418;47.536;19.074;2023-12-20T00:27:03;100519.06;;;-1.80;100.00
75794;BME280;64418;47.536;19.074;2023-12-20T00:29:29;100520.03;;;-1.92;100.00
75794;BME280;64418;47.536;19.074;2023-12-20T00:31:55;100516.69;;;-1.95;100.00
75794;BME280;64418;47.536;19.074;2023-12-20T00:34:20;100516.13;;;-2.09;100.00
75794;BME280;64418;47.536;19.074;2023-12-20T00:36:46;100443.78;;;-2.45;100.00
75794;BME280;64418;47.536;19.074;2023-12-20T00:39:14;100503.09;;;-2.12;100.00
75794;BME280;64418;47.536;19.074;2023-12-20T00:41:40;100501.28;;;-2.01;100.00
75794;BME280;64418;47.536;19.074;2023-12-20T00:44:05;100489.69;;;-2.22;100.00
75794;BME280;64418;47.536;19.074;2023-12-20T00:46:31;100500.03;;;-2.08;100.00
75794;BME280;64418;47.536;19.074;2023-12-20T00:48:57;100480.50;;;-2.07;100.00
75794;BME280;64418;47.536;19.074;2023-12-20T00:51:23;100478.19;;;-2.00;100.00
75794;BME280;64418;47.536;19.074;2023-12-20T00:53:50;100473.88;;;-2.01;100.00
75794;BME280;64418;47.536;19.074;2023-12-20T00:56:19;100476.16;;;-1.97;100.00
75794;BME280;64418;47.536;19.074;2023-12-20T00:58:45;100466.78;;;-2.12;100.00
75794;BME280;64418;47.536;19.074;2023-12-20T01:01:11;100416.66;;;-2.37;100.00
75794;BME280;64418;47.536;19.074;2023-12-20T01:03:37;100475.69;;;-2.02;100.00
75794;BME280;64418;47.536;19.074;2023-12-20T01:06:03;100472.19;;;-2.02;100.00
75794;BME280;64418;47.536;19.074;2023-12-20T01:08:28;100467.37;;;-2.08;100.00
75794;BME280;64418;47.536;19.074;2023-12-20T01:10:54;100463.53;;;-2.04;100.00
75794;BME280;64418;47.536;19.074;2023-12-20T01:13:22;100458.22;;;-2.04;100.00
75794;BME280;64418;47.536;19.074;2023-12-20T01:15:47;100453.72;;;-2.04;100.00
75794;BME280;64418;47.536;19.074;2023-12-20T01:18:14;100452.75;;;-2.03;100.00
75794;BME280;64418;47.536;19.074;2023-12-20T01:20:40;100454.81;;;-2.06;100.00
75794;BME280;64418;47.536;19.074;2023-12-20T01:23:06;100450.37;;;-2.06;100.00
75794;BME280;64418;47.536;19.074;2023-12-20T01:25:32;100434.94;;;-2.12;100.00
75794;BME280;64418;47.536;19.074;2023-12-20T01:27:57;100442.91;;;-2.12;100.00
75794;BME280;64418;47.536;19.074;2023-12-20T01:30:25;100446.97;;;-2.08;100.00
75794;BME280;64418;47.536;19.074;2023-12-20T01:32:51;100437.59;;;-2.12;100.00
75794;BME280;64418;47.536;19.074;2023-12-20T01:35:17;100417.59;;;-2.16;100.00
75794;BME280;64418;47.536;19.074;2023-12-20T01:37:43;100412.28;;;-2.16;100.00
75794;BME280;64418;47.536;19.074;2023-12-20T01:40:10;100422.12;;;-2.07;100.00
75794;BME280;64418;47.536;19.074;2023-12-20T01:42:36;100428.66;;;-2.11;100.00
75794;BME280;64418;47.536;19.074;2023-12-20T01:45:03;100414.53;;;-2.11;100.00
75794;BME280;64418;47.536;19.074;2023-12-20T01:47:30;100374.81;;;-2.33;100.00
75794;BME280;64418;47.536;19.074;2023-12-20T01:49:56;100403.09;;;-2.12;100.00
75794;BME280;64418;47.536;19.074;2023-12-20T01:52:24;100398.25;;;-2.07;100.00
75794;BME280;64418;47.536;19.074;2023-12-20T01:54:51;100401.03;;;-2.08;100.00
75794;BME280;64418;47.536;19.074;2023-12-20T01:57:17;100392.81;;;-2.05;100.00
75794;BME280;64418;47.536;19.074;2023-12-20T01:59:44;100385.94;;;-2.08;100.00
75794;BME280;64418;47.536;19.074;2023-12-20T02:02:10;100381.62;;;-2.09;100.00
75794;BME280;64418;47.536;19.074;2023-12-20T02:04:38;100381.09;;;-2.03;100.00
75794;BME280;64418;47.536;19.074;2023-12-20T02:07:04;100363.31;;;-2.12;100.00
75794;BME280;64418;47.536;19.074;2023-12-20T02:09:32;100359.19;;;-2.05;100.00
75794;BME280;64418;47.536;19.074;2023-12-20T02:11:59;100348.66;;;-2.06;100.00
75794;BME280;64418;47.536;19.074;2023-12-20T02:14:25;100339.41;;;-2.12;100.00
75794;BME280;64418;47.536;19.074;2023-12-20T02:16:52;100328.19;;;-2.15;100.00
75794;BME280;64418;47.536;19.074;2023-12-20T02:19:20;100341.59;;;-2.17;100.00
75794;BME280;64418;47.536;19.074;2023-12-20T02:21:47;100324.41;;;-2.02;100.00
75794;BME280;64418;47.536;19.074;2023-12-20T02:24:13;100327.00;;;-1.90;100.00
75794;BME280;64418;47.536;19.074;2023-12-20T02:26:40;100326.91;;;-1.89;100.00
75794;BME280;64418;47.536;19.074;2023-12-20T02:29:06;100337.03;;;-1.94;100.00
75794;BME280;64418;47.536;19.074;2023-12-20T02:31:32;100323.41;;;-1.89;100.00
75794;BME280;64418;47.536;19.074;2023-12-20T02:33:58;100324.25;;;-1.89;100.00
75794;BME280;64418;47.536;19.074;2023-12-20T02:36:24;100320.78;;;-2.01;100.00
75794;BME280;64418;47.536;19.074;2023-12-20T02:38:51;100318.97;;;-2.00;100.00
75794;BME280;64418;47.536;19.074;2023-12-20T02:41:17;100321.03;;;-2.04;100.00
75794;BME280;64418;47.536;19.074;2023-12-20T02:43:44;100306.53;;;-2.00;100.00
75794;BME280;64418;47.536;19.074;2023-12-20T02:46:10;100311.59;;;-1.97;100.00
75794;BME280;64418;47.536;19.074;2023-12-20T02:48:36;100304.09;;;-1.91;100.00
75794;BME280;64418;47.536;19.074;2023-12-20T02:51:02;100296.91;;;-2.01;100.00
75794;BME280;64418;47.536;19.074;2023-12-20T02:53:28;100291.53;;;-1.89;100.00
75794;BME280;64418;47.536;19.074;2023-12-20T02:55:56;100293.94;;;-1.86;100.00
75794;BME280;64418;47.536;19.074;2023-12-20T02:58:23;100294.63;;;-1.84;100.00
75794;BME280;64418;47.536;19.074;2023-12-20T03:00:48;100285.69;;;-1.83;100.00
75794;BME280;64418;47.536;19.074;2023-12-20T03:03:14;100282.59;;;-1.88;100.00
75794;BME280;64418;47.536;19.074;2023-12-20T03:05:40;100241.94;;;-2.10;100.00
75794;BME280;64418;47.536;19.074;2023-12-20T03:08:06;100292.13;;;-1.86;100.00
75794;BME280;64418;47.536;19.074;2023-12-20T03:10:32;100281.78;;;-1.89;100.00
75794;BME280;64418;47.536;19.074;2023-12-20T03:13:00;100279.53;;;-1.84;100.00
75794;BME280;64418;47.536;19.074;2023-12-20T03:15:26;100283.16;;;-1.85;100.00
75794;BME280;64418;47.536;19.074;2023-12-20T03:17:52;100283.38;;;-1.98;100.00
75794;BME280;64418;47.536;19.074;2023-12-20T03:20:18;100281.16;;;-1.92;100.00
75794;BME280;64418;47.536;19.074;2023-12-20T03:22:44;100286.47;;;-1.92;100.00
75794;BME280;64418;47.536;19.074;2023-12-20T03:25:10;100295.41;;;-1.93;100.00
75794;BME280;64418;47.536;19.074;2023-12-20T03:27:37;100289.31;;;-1.84;100.00
75794;BME280;64418;47.536;19.074;2023-12-20T03:30:05;100289.97;;;-1.92;100.00
75794;BME280;64418;47.536;19.074;2023-12-20T03:32:31;100282.59;;;-1.88;100.00
75794;BME280;64418;47.536;19.074;2023-12-20T03:34:57;100290.44;;;-1.87;100.00
75794;BME280;64418;47.536;19.074;2023-12-20T03:37:23;100294.44;;;-1.92;100.00
75794;BME280;64418;47.536;19.074;2023-12-20T03:39:49;100286.28;;;-2.01;100.00
75794;BME280;64418;47.536;19.074;2023-12-20T03:42:15;100289.75;;;-2.00;100.00
75794;BME280;64418;47.536;19.074;2023-12-20T03:44:41;100289.13;;;-1.92;100.00
75794;BME280;64418;47.536;19.074;2023-12-20T03:47:09;100289.84;;;-1.90;100.00
75794;BME280;64418;47.536;19.074;2023-12-20T03:49:35;100299.25;;;-1.86;100.00
75794;BME280;64418;47.536;19.074;2023-12-20T03:52:01;100269.97;;;-1.96;100.00
75794;BME280;64418;47.536;19.074;2023-12-20T03:54:27;100287.19;;;-1.90;100.00
75794;BME280;64418;47.536;19.074;2023-12-20T03:56:53;100286.72;;;-1.96;100.00
75794;BME280;64418;47.536;19.074;2023-12-20T03:59:19;100276.47;;;-1.89;100.00
75794;BME280;64418;47.536;19.074;2023-12-20T04:01:45;100275.84;;;-1.92;100.00
75794;BME280;64418;47.536;19.074;2023-12-20T04:04:13;100276.19;;;-1.86;100.00
75794;BME280;64418;47.536;19.074;2023-12-20T04:06:39;100280.34;;;-1.93;100.00
75794;BME280;64418;47.536;19.074;2023-12-20T04:09:05;100279.03;;;-1.99;100.00
75794;BME280;64418;47.536;19.074;2023-12-20T04:11:31;100273.06;;;-1.91;100.00
75794;BME280;64418;47.536;19.074;2023-12-20T04:13:58;100279.81;;;-1.87;100.00
75794;BME280;64418;47.536;19.074;2023-12-20T04:16:24;100271.59;;;-2.05;100.00
75794;BME280;64418;47.536;19.074;2023-12-20T04:18:49;100282.72;;;-2.11;100.00
75794;BME280;64418;47.536;19.074;2023-12-20T04:21:17;100276.12;;;-1.96;100.00
75794;BME280;64418;47.536;19.074;2023-12-20T04:23:46;100269.25;;;-1.98;100.00
75794;BME280;64418;47.536;19.074;2023-12-20T04:26:12;100254.37;;;-1.89;100.00
75794;BME280;64418;47.536;19.074;2023-12-20T04:28:38;100252.94;;;-1.93;100.00
75794;BME280;64418;47.536;19.074;2023-12-20T04:31:05;100255.03;;;-1.97;100.00
75794;BME280;64418;47.536;19.074;2023-12-20T04:33:31;100237.53;;;-2.00;100.00
75794;BME280;64418;47.536;19.074;2023-12-20T04:35:57;100230.56;;;-2.01;100.00
75794;BME280;64418;47.536;19.074;2023-12-20T04:38:25;100243.84;;;-2.01;100.00
75794;BME280;64418;47.536;19.074;2023-12-20T04:40:52;100215.41;;;-2.10;100.00
75794;BME280;64418;47.536;19.074;2023-12-20T04:43:18;100224.44;;;-1.91;100.00
75794;BME280;64418;47.536;19.074;2023-12-20T04:45:44;100222.19;;;-1.96;100.00
75794;BME280;64418;47.536;19.074;2023-12-20T04:48:10;100218.00;;;-1.99;100.00
75794;BME280;64418;47.536;19.074;2023-12-20T04:50:36;100196.22;;;-1.92;100.00
75794;BME280;64418;47.536;19.074;2023-12-20T04:53:03;100194.03;;;-1.87;100.00
75794;BME280;64418;47.536;19.074;2023-12-20T04:55:30;100201.72;;;-1.84;100.00
75794;BME280;64418;47.536;19.074;2023-12-20T04:57:56;100177.72;;;-2.04;100.00
75794;BME280;64418;47.536;19.074;2023-12-20T05:00:22;100191.53;;;-1.89;100.00
75794;BME280;64418;47.536;19.074;2023-12-20T05:02:48;100184.81;;;-1.83;100.00
75794;BME280;64418;47.536;19.074;2023-12-20T05:05:14;100186.63;;;-1.84;100.00
75794;BME280;64418;47.536;19.074;2023-12-20T05:07:40;100173.06;;;-1.90;100.00
75794;BME280;64418;47.536;19.074;2023-12-20T05:10:07;100167.75;;;-1.90;100.00
75794;BME280;64418;47.536;19.074;2023-12-20T05:12:35;100181.47;;;-1.85;100.00
75794;BME280;64418;47.536;19.074;2023-12-20T05:15:01;100172.50;;;-1.84;100.00
75794;BME280;64418;47.536;19.074;2023-12-20T05:17:27;100175.81;;;-1.71;100.00
75794;BME280;64418;47.536;19.074;2023-12-20T05:19:53;100169.78;;;-1.73;100.00
75794;BME280;64418;47.536;19.074;2023-12-20T05:22:19;100173.16;;;-1.71;100.00
75794;BME280;64418;47.536;19.074;2023-12-20T05:24:45;100158.56;;;-1.77;100.00
75794;BME280;64418;47.536;19.074;2023-12-20T05:27:11;100151.34;;;-1.75;100.00
75794;BME280;64418;47.536;19.074;2023-12-20T05:29:40;100165.00;;;-1.79;100.00
75794;BME280;64418;47.536;19.074;2023-12-20T05:32:06;100173.94;;;-1.80;100.00
75794;BME280;64418;47.536;19.074;2023-12-20T05:34:32;100180.19;;;-1.91;100.00
75794;BME280;64418;47.536;19.074;2023-12-20T05:36:58;100186.03;;;-1.97;100.00
75794;BME280;64418;47.536;19.074;2023-12-20T05:39:24;100177.41;;;-1.89;100.00
75794;BME280;64418;47.536;19.074;2023-12-20T05:41:50;100183.03;;;-2.04;100.00
75794;BME280;64418;47.536;19.074;2023-12-20T05:44:16;100168.94;;;-2.04;100.00
75794;BME280;64418;47.536;19.074;2023-12-20T05:46:43;100166.53;;;-2.07;100.00
75794;BME280;64418;47.536;19.074;2023-12-20T05:49:09;100158.34;;;-2.04;100.00
75794;BME280;64418;47.536;19.074;2023-12-20T05:51:35;100148.97;;;-1.99;100.00
75794;BME280;64418;47.536;19.074;2023-12-20T05:54:02;100150.13;;;-1.91;100.00
75794;BME280;64418;47.536;19.074;2023-12-20T05:56:29;100145.78;;;-1.92;100.00
75794;BME280;64418;47.536;19.074;2023-12-20T05:58:55;100143.97;;;-1.92;100.00
75794;BME280;64418;47.536;19.074;2023-12-20T06:01:20;100136.88;;;-1.91;100.00
75794;BME280;64418;47.536;19.074;2023-12-20T06:03:48;100130.72;;;-1.92;100.00
75794;BME280;64418;47.536;19.074;2023-12-20T06:06:14;100128.37;;;-1.85;100.00
75794;BME280;64418;47.536;19.074;2023-12-20T06:08:42;100127.25;;;-1.83;100.00
75794;BME280;64418;47.536;19.074;2023-12-20T06:11:08;100016.91;;;-2.56;100.00
75794;BME280;64418;47.536;19.074;2023-12-20T06:13:34;100139.25;;;-1.88;100.00
75794;BME280;64418;47.536;19.074;2023-12-20T06:16:00;100137.03;;;-1.83;100.00
75794;BME280;64418;47.536;19.074;2023-12-20T06:18:26;100133.94;;;-1.88;100.00
75794;BME280;64418;47.536;19.074;2023-12-20T06:20:55;100133.94;;;-1.88;100.00
75794;BME280;64418;47.536;19.074;2023-12-20T06:23:21;100141.22;;;-1.81;100.00
75794;BME280;64418;47.536;19.074;2023-12-20T06:25:47;100130.62;;;-1.81;100.00
75794;BME280;64418;47.536;19.074;2023-12-20T06:28:13;100132.00;;;-1.86;100.00
75794;BME280;64418;47.536;19.074;2023-12-20T06:30:41;100137.88;;;-1.83;100.00
75794;BME280;64418;47.536;19.074;2023-12-20T06:33:07;100127.81;;;-1.89;100.00
75794;BME280;64418;47.536;19.074;2023-12-20T06:35:32;100135.91;;;-1.81;100.00
75794;BME280;64418;47.536;19.074;2023-12-20T06:38:00;100147.38;;;-1.80;100.00
75794;BME280;64418;47.536;19.074;2023-12-20T06:40:27;100152.87;;;-1.72;100.00
75794;BME280;64418;47.536;19.074;2023-12-20T06:42:52;100164.78;;;-1.67;100.00
75794;BME280;64418;47.536;19.074;2023-12-20T06:45:18;100165.63;;;-1.66;100.00
75794;BME280;64418;47.536;19.074;2023-12-20T06:47:44;100169.66;;;-1.62;100.00
75794;BME280;64418;47.536;19.074;2023-12-20T06:50:11;100166.16;;;-1.72;100.00
75794;BME280;64418;47.536;19.074;2023-12-20T06:52:37;100181.03;;;-1.60;100.00
75794;BME280;64418;47.536;19.074;2023-12-20T06:55:05;100191.25;;;-1.86;100.00
75794;BME280;64418;47.536;19.074;2023-12-20T06:57:31;100190.97;;;-1.83;100.00
75794;BME280;64418;47.536;19.074;2023-12-20T06:59:57;100187.22;;;-1.80;100.00
75794;BME280;64418;47.536;19.074;2023-12-20T07:02:24;100187.28;;;-1.91;100.00
75794;BME280;64418;47.536;19.074;2023-12-20T07:04:50;100197.63;;;-1.88;100.00
75794;BME280;64418;47.536;19.074;2023-12-20T07:07:27;100191.44;;;-1.99;100.00
75794;BME280;64418;47.536;19.074;2023-12-20T07:09:53;100191.00;;;-2.04;100.00
75794;BME280;64418;47.536;19.074;2023-12-20T07:12:20;100200.91;;;-2.06;100.00
75794;BME280;64418;47.536;19.074;2023-12-20T07:14:46;100188.34;;;-2.04;100.00
75794;BME280;64418;47.536;19.074;2023-12-20T07:17:12;100180.72;;;-2.18;100.00
75794;BME280;64418;47.536;19.074;2023-12-20T07:19:39;100179.03;;;-2.19;100.00
75794;BME280;64418;47.536;19.074;2023-12-20T07:22:06;100175.03;;;-2.13;100.00
75794;BME280;64418;47.536;19.074;2023-12-20T07:24:33;100166.69;;;-2.29;100.00
75794;BME280;64418;47.536;19.074;2023-12-20T07:26:59;100181.09;;;-2.22;100.00
75794;BME280;64418;47.536;19.074;2023-12-20T07:29:28;100180.09;;;-2.31;100.00
75794;BME280;64418;47.536;19.074;2023-12-20T07:31:55;100184.22;;;-2.17;100.00
75794;BME280;64418;47.536;19.074;2023-12-20T07:34:22;100183.84;;;-2.13;100.00
75794;BME280;64418;47.536;19.074;2023-12-20T07:36:48;100185.75;;;-2.15;100.00
75794;BME280;64418;47.536;19.074;2023-12-20T07:39:15;100184.88;;;-2.25;100.00
75794;BME280;64418;47.536;19.074;2023-12-20T07:41:41;100188.91;;;-2.30;100.00
75794;BME280;64418;47.536;19.074;2023-12-20T07:44:07;100185.06;;;-2.17;100.00
75794;BME280;64418;47.536;19.074;2023-12-20T07:46:40;100190.69;;;-2.10;100.00
75794;BME280;64418;47.536;19.074;2023-12-20T07:49:07;100177.69;;;-2.13;100.00
75794;BME280;64418;47.536;19.074;2023-12-20T07:51:33;100141.81;;;-2.38;100.00
75794;BME280;64418;47.536;19.074;2023-12-20T07:54:00;100178.00;;;-2.07;100.00
75794;BME280;64418;47.536;19.074;2023-12-20T07:56:29;100179.28;;;-2.22;100.00
75794;BME280;64418;47.536;19.074;2023-12-20T07:58:58;100169.59;;;-2.12;100.00
75794;BME280;64418;47.536;19.074;2023-12-20T08:01:25;100168.69;;;-2.22;100.00
75794;BME280;64418;47.536;19.074;2023-12-20T08:03:54;100169.06;;;-2.26;100.00
75794;BME280;64418;47.536;19.074;2023-12-20T08:06:20;100171.47;;;-2.23;100.00
75794;BME280;64418;47.536;19.074;2023-12-20T08:08:47;100167.72;;;-2.21;100.00
75794;BME280;64418;47.536;19.074;2023-12-20T08:11:13;100166.41;;;-2.26;100.00
75794;BME280;64418;47.536;19.074;2023-12-20T08:13:41;100159.94;;;-2.33;100.00
75794;BME280;64418;47.536;19.074;2023-12-20T08:16:09;100159.44;;;-2.27;100.00
75794;BME280;64418;47.536;19.074;2023-12-20T08:21:30;100151.72;;;-1.39;100.00
75794;BME280;64418;47.536;19.074;2023-12-20T08:24:16;100125.09;;;-1.68;100.00
75794;BME280;64418;47.536;19.074;2023-12-20T08:27:03;100159.66;;;-1.49;100.00
75794;BME280;64418;47.536;19.074;2023-12-20T08:29:29;100161.91;;;-1.84;100.00
75794;BME280;64418;47.536;19.074;2023-12-20T08:31:55;100157.41;;;-1.63;100.00
75794;BME280;64418;47.536;19.074;2023-12-20T08:34:22;100165.94;;;-2.11;100.00
75794;BME280;64418;47.536;19.074;2023-12-20T08:36:50;100166.03;;;-2.22;100.00
75794;BME280;64418;47.536;19.074;2023-12-20T08:39:16;100167.25;;;-2.26;100.00
75794;BME280;64418;47.536;19.074;2023-12-20T08:41:43;100169.22;;;-2.28;100.00
75794;BME280;64418;47.536;19.074;2023-12-20T08:44:10;100176.56;;;-2.11;100.00
75794;BME280;64418;47.536;19.074;2023-12-20T08:46:38;100168.94;;;-2.25;100.00
75794;BME280;64418;47.536;19.074;2023-12-20T08:49:04;100170.59;;;-2.03;100.00
75794;BME280;64418;47.536;19.074;2023-12-20T08:51:30;100170.69;;;-1.93;100.00
75794;BME280;64418;47.536;19.074;2023-12-20T08:53:57;100174.75;;;-1.89;100.00
75794;BME280;64418;47.536;19.074;2023-12-20T08:56:23;100139.66;;;-1.93;100.00
75794;BME280;64418;47.536;19.074;2023-12-20T08:58:49;100172.87;;;-1.68;100.00
75794;BME280;64418;47.536;19.074;2023-12-20T09:01:15;100165.47;;;-1.74;100.00
75794;BME280;64418;47.536;19.074;2023-12-20T09:03:43;100169.84;;;-1.84;100.00
75794;BME280;64418;47.536;19.074;2023-12-20T09:06:09;100177.34;;;-1.69;100.00
75794;BME280;64418;47.536;19.074;2023-12-20T09:08:36;100176.41;;;-1.58;100.00
75794;BME280;64418;47.536;19.074;2023-12-20T09:11:06;100174.47;;;-1.86;100.00
75794;BME280;64418;47.536;19.074;2023-12-20T09:13:33;100170.78;;;-1.74;100.00
75794;BME280;64418;47.536;19.074;2023-12-20T09:16:01;100165.44;;;-1.44;100.00
75794;BME280;64418;47.536;19.074;2023-12-20T09:18:27;100164.69;;;-1.46;100.00
75794;BME280;64418;47.536;19.074;2023-12-20T09:21:07;100163.47;;;-1.42;100.00
75794;BME280;64418;47.536;19.074;2023-12-20T09:36:53;100132.50;;;-0.93;100.00
75794;BME280;64418;47.536;19.074;2023-12-20T09:42:57;100111.78;;;-0.80;100.00
75794;BME280;64418;47.536;19.074;2023-12-20T09:45:25;100113.03;;;-0.65;100.00
75794;BME280;64418;47.536;19.074;2023-12-20T09:47:53;100038.44;;;-0.73;100.00
75794;BME280;64418;47.536;19.074;2023-12-20T09:50:20;100117.78;;;0.07;100.00
75794;BME280;64418;47.536;19.074;2023-12-20T09:52:50;100117.09;;;0.32;100.00
75794;BME280;64418;47.536;19.074;2023-12-20T09:55:21;100122.13;;;0.62;100.00
75794;BME280;64418;47.536;19.074;2023-12-20T09:57:47;100114.22;;;0.53;100.00
75794;BME280;64418;47.536;19.074;2023-12-20T10:00:14;100092.25;;;0.41;100.00
75794;BME280;64418;47.536;19.074;2023-12-20T10:03:01;100101.00;;;0.78;100.00
75794;BME280;64418;47.536;19.074;2023-12-20T10:05:28;100095.78;;;1.99;100.00
75794;BME280;64418;47.536;19.074;2023-12-20T10:07:56;100090.03;;;2.20;100.00
75794;BME280;64418;47.536;19.074;2023-12-20T10:10:22;100077.37;;;2.22;100.00
75794;BME280;64418;47.536;19.074;2023-12-20T10:13:02;100079.06;;;2.81;100.00
75794;BME280;64418;47.536;19.074;2023-12-20T10:15:28;100084.44;;;4.41;100.00
75794;BME280;64418;47.536;19.074;2023-12-20T10:18:15;100072.94;;;4.55;100.00
75794;BME280;64418;47.536;19.074;2023-12-20T10:21:02;100075.31;;;4.50;100.00
75794;BME280;64418;47.536;19.074;2023-12-20T10:23:29;100072.06;;;4.94;100.00
75794;BME280;64418;47.536;19.074;2023-12-20T10:25:56;100073.12;;;5.53;100.00
75794;BME280;64418;47.536;19.074;2023-12-20T10:28:42;100048.50;;;6.66;93.25
75794;BME280;64418;47.536;19.074;2023-12-20T10:31:08;100035.09;;;5.93;96.42
75794;BME280;64418;47.536;19.074;2023-12-20T10:33:57;100031.84;;;6.42;90.39
75794;BME280;64418;47.536;19.074;2023-12-20T10:36:44;100018.78;;;7.17;84.92
75794;BME280;64418;47.536;19.074;2023-12-20T10:39:32;100006.75;;;7.68;82.94
75794;BME280;64418;47.536;19.074;2023-12-20T10:41:58;100011.56;;;5.95;88.90
75794;BME280;64418;47.536;19.074;2023-12-20T10:44:44;100006.94;;;6.90;82.53
75794;BME280;64418;47.536;19.074;2023-12-20T10:47:11;100001.78;;;7.65;79.30
75794;BME280;64418;47.536;19.074;2023-12-20T10:49:39;100004.13;;;7.47;76.69
75794;BME280;64418;47.536;19.074;2023-12-20T10:52:06;100002.50;;;8.15;76.38
75794;BME280;64418;47.536;19.074;2023-12-20T10:54:55;99994.84;;;7.29;79.63
75794;BME280;64418;47.536;19.074;2023-12-20T10:57:42;99973.78;;;8.48;73.60
75794;BME280;64418;47.536;19.074;2023-12-20T11:00:31;99989.94;;;8.01;75.45
75794;BME280;64418;47.536;19.074;2023-12-20T11:03:01;99981.13;;;8.61;74.76
75794;BME280;64418;47.536;19.074;2023-12-20T11:05:33;99989.53;;;9.25;70.85
75794;BME280;64418;47.536;19.074;2023-12-20T11:08:26;99981.81;;;9.09;71.01
75794;BME280;64418;47.536;19.074;2023-12-20T11:11:02;99990.22;;;10.24;65.99
75794;BME280;64418;47.536;19.074;2023-12-20T11:13:32;99967.47;;;10.32;65.55
75794;BME280;64418;47.536;19.074;2023-12-20T11:16:00;99979.88;;;9.95;65.13
75794;BME280;64418;47.536;19.074;2023-12-20T11:18:29;99976.41;;;10.45;64.83
75794;BME280;64418;47.536;19.074;2023-12-20T11:20:55;99954.38;;;9.12;66.00
75794;BME280;64418;47.536;19.074;2023-12-20T11:23:42;99949.78;;;9.52;65.16
75794;BME280;64418;47.536;19.074;2023-12-20T11:26:10;99949.56;;;9.66;65.17
75794;BME280;64418;47.536;19.074;2023-12-20T11:28:36;99938.63;;;10.19;65.12
75794;BME280;64418;47.536;19.074;2023-12-20T11:31:02;99940.47;;;9.02;66.91
75794;BME280;64418;47.536;19.074;2023-12-20T11:33:31;99928.59;;;9.55;65.02
75794;BME280;64418;47.536;19.074;2023-12-20T11:35:57;99920.38;;;9.88;64.76
75794;BME280;64418;47.536;19.074;2023-12-20T11:38:24;99915.22;;;10.31;64.94
75794;BME280;64418;47.536;19.074;2023-12-20T11:40:54;99910.31;;;10.53;64.55
75794;BME280;64418;47.536;19.074;2023-12-20T11:43:42;99914.03;;;10.90;62.96
75794;BME280;64418;47.536;19.074;2023-12-20T11:46:08;99926.28;;;10.68;62.17
75794;BME280;64418;47.536;19.074;2023-12-20T11:48:54;99928.19;;;11.41;60.37
75794;BME280;64418;47.536;19.074;2023-12-20T11:51:41;99929.72;;;11.98;60.56
75794;BME280;64418;47.536;19.074;2023-12-20T11:54:07;99930.00;;;12.27;58.18
75794;BME280;64418;47.536;19.074;2023-12-20T11:56:53;99929.28;;;12.31;58.54
75794;BME280;64418;47.536;19.074;2023-12-20T11:59:21;99929.41;;;11.88;59.84
75794;BME280;64418;47.536;19.074;2023-12-20T12:01:48;99929.66;;;12.94;58.21
75794;BME280;64418;47.536;19.074;2023-12-20T12:04:15;99921.84;;;13.39;54.67
75794;BME280;64418;47.536;19.074;2023-12-20T12:07:01;99916.44;;;12.98;53.91
75794;BME280;64418;47.536;19.074;2023-12-20T12:09:27;99904.53;;;13.11;54.64
75794;BME280;64418;47.536;19.074;2023-12-20T12:12:14;99908.59;;;10.90;62.53
75794;BME280;64418;47.536;19.074;2023-12-20T12:15:02;99901.97;;;10.10;66.72
75794;BME280;64418;47.536;19.074;2023-12-20T12:17:29;99870.56;;;8.40;75.63
75794;BME280;64418;47.536;19.074;2023-12-20T12:20:03;99892.88;;;8.94;76.21
75794;BME280;64418;47.536;19.074;2023-12-20T12:22:30;99893.31;;;8.11;81.32
75794;BME280;64418;47.536;19.074;2023-12-20T12:24:59;99907.72;;;7.49;85.46
75794;BME280;64418;47.536;19.074;2023-12-20T12:27:25;99906.81;;;7.36;88.32
75794;BME280;64418;47.536;19.074;2023-12-20T12:30:16;99908.38;;;6.96;93.83
75794;BME280;64418;47.536;19.074;2023-12-20T12:33:03;99903.59;;;6.70;97.30
75794;BME280;64418;47.536;19.074;2023-12-20T12:35:30;99903.78;;;6.47;99.82
75794;BME280;64418;47.536;19.074;2023-12-20T12:37:59;99898.78;;;6.44;99.59
75794;BME280;64418;47.536;19.074;2023-12-20T12:40:25;99886.47;;;6.14;100.00
75794;BME280;64418;47.536;19.074;2023-12-20T12:42:52;99885.13;;;6.03;100.00
75794;BME280;64418;47.536;19.074;2023-12-20T12:45:19;99904.66;;;5.82;100.00
75794;BME280;64418;47.536;19.074;2023-12-20T12:47:45;99904.22;;;5.79;100.00
75794;BME280;64418;47.536;19.074;2023-12-20T12:50:11;99916.28;;;5.68;100.00
75794;BME280;64418;47.536;19.074;2023-12-20T12:52:37;99917.13;;;5.54;100.00
75794;BME280;64418;47.536;19.074;2023-12-20T12:55:04;99845.78;;;5.08;100.00
75794;BME280;64418;47.536;19.074;2023-12-20T12:57:51;99910.06;;;5.39;100.00
75794;BME280;64418;47.536;19.074;2023-12-20T13:00:20;99913.22;;;5.27;100.00